Terminal Aerodrome Forecast
Issued by NWS Charleston, SC

Home | Current Version | Previous Version | Text Only | Print | Product List | Glossary On
Versions: 1 2 3 4 5 6 7 8 9 10 11 12 13 14 15 16 17 18 19 20 21 22 23 24 25 26 27 28
000
FTUS42 KCHS 242000 AAB
TAFCHS
TAF AMD
KCHS 242015Z 2420/2518 24010KT P6SM VCSH SCT015 BKN035
     FM242200 21006KT P6SM SCT015 BKN035
     FM250800 VRB03KT 5SM -RA BR SCT008 OVC015
     FM251400 33008KT 4SM RA BR SCT005 OVC010=

USA.gov is the U.S. government's official web portal to all federal, state and local government web resources and services.